Time,TemperatureF,DewpointF,PressureIn,WindDirection,WindDirectionDegrees,WindSpeedMPH,WindSpeedGustMPH,Humidity,HourlyPrecipIn,Conditions,Clouds,dailyrainin,SoftwareType,DateUTC
2013-03-08 00:00:00,32.4,29.8,29.94,North,351,0.0,0.0,90,0.00,,---,0.00,VWS V14.01,2013-03-08 05:00:00,
2013-03-08 00:02:00,32.4,29.8,29.94,North,3,0.0,0.0,90,0.00,,---,0.00,VWS V14.01,2013-03-08 05:02:00,
2013-03-08 00:07:00,32.4,29.8,29.94,NNE,30,0.0,5.8,90,0.00,,---,0.00,VWS V14.01,2013-03-08 05:07:00,
2013-03-08 00:12:00,32.5,29.9,29.94,NNE,30,0.0,0.0,90,0.00,,---,0.00,VWS V14.01,2013-03-08 05:12:00,
2013-03-08 00:17:00,32.4,29.5,29.94,NE,49,4.9,6.7,89,0.00,,---,0.00,VWS V14.01,2013-03-08 05:17:00,
2013-03-08 00:22:00,32.4,29.5,29.94,NNE,29,0.0,7.4,89,0.00,,---,0.00,VWS V14.01,2013-03-08 05:22:00,
2013-03-08 00:27:00,32.4,29.5,29.94,NNE,13,0.0,0.0,89,0.00,,---,0.00,VWS V14.01,2013-03-08 05:27:00,
2013-03-08 00:32:00,32.2,29.3,29.94,East,82,7.8,9.6,89,0.00,,---,0.00,VWS V14.01,2013-03-08 05:32:00,
2013-03-08 00:37:00,32.2,29.0,29.94,NE,36,0.0,0.0,88,0.00,,---,0.00,VWS V14.01,2013-03-08 05:37:00,
2013-03-08 00:42:00,32.0,28.9,29.94,NE,40,0.0,6.3,88,0.00,,---,0.00,VWS V14.01,2013-03-08 05:42:00,
2013-03-08 00:47:00,32.0,28.9,29.94,NNE,14,0.0,0.0,88,0.00,,---,0.00,VWS V14.01,2013-03-08 05:47:00,
2013-03-08 00:52:00,32.0,28.9,29.94,NNE,33,0.0,0.0,88,0.00,,---,0.00,VWS V14.01,2013-03-08 05:52:00,
2013-03-08 00:57:00,32.0,28.9,29.94,North,8,0.0,0.0,88,0.00,,---,0.00,VWS V14.01,2013-03-08 05:57:00,
2013-03-08 01:02:00,31.8,28.7,29.94,NNE,29,0.0,0.0,88,0.00,,---,0.00,VWS V14.01,2013-03-08 06:02:00,
2013-03-08 01:07:00,31.8,28.7,29.94,NNE,30,0.0,0.0,88,0.00,,---,0.00,VWS V14.01,2013-03-08 06:07:00,
2013-03-08 01:12:00,31.8,28.7,29.94,NNE,16,0.0,0.0,88,0.00,,---,0.00,VWS V14.01,2013-03-08 06:12:00,
2013-03-08 01:17:00,31.8,28.7,29.94,ENE,69,7.4,9.6,88,0.00,,---,0.00,VWS V14.01,2013-03-08 06:17:00,
2013-03-08 01:22:00,31.8,28.7,29.94,NE,40,2.7,5.8,88,0.00,,---,0.00,VWS V14.01,2013-03-08 06:22:00,
2013-03-08 01:27:00,31.8,28.7,29.94,ENE,78,6.3,7.8,88,0.00,,---,0.00,VWS V14.01,2013-03-08 06:27:00,
2013-03-08 01:32:00,31.8,28.4,29.94,NE,37,6.9,6.9,87,0.00,,---,0.00,VWS V14.01,2013-03-08 06:32:00,
2013-03-08 01:37:00,31.8,28.4,29.94,NNW,345,0.0,4.9,87,0.00,,---,0.00,VWS V14.01,2013-03-08 06:37:00,
2013-03-08 01:42:00,31.8,28.4,29.94,East,81,0.0,0.0,87,0.00,,---,0.00,VWS V14.01,2013-03-08 06:42:00,
2013-03-08 01:47:00,31.8,28.4,29.94,NNE,29,0.0,7.8,87,0.00,,---,0.00,VWS V14.01,2013-03-08 06:47:00,
2013-03-08 01:52:00,31.8,28.4,29.94,NNE,33,0.0,6.7,87,0.00,,---,0.00,VWS V14.01,2013-03-08 06:52:00,
2013-03-08 01:57:00,31.8,28.4,29.94,NNE,12,0.0,0.0,87,0.00,,---,0.00,VWS V14.01,2013-03-08 06:57:00,
2013-03-08 02:02:00,31.8,28.4,29.94,NE,53,0.0,0.0,87,0.00,,---,0.00,VWS V14.01,2013-03-08 07:02:00,
2013-03-08 02:07:00,31.8,28.4,29.94,NNE,26,0.0,0.0,87,0.00,,---,0.00,VWS V14.01,2013-03-08 07:07:00,
2013-03-08 02:12:00,31.8,28.4,29.91,NNE,29,0.0,0.0,87,0.00,,---,0.00,VWS V14.01,2013-03-08 07:12:00,
2013-03-08 02:17:00,32.0,28.6,29.91,NE,38,0.0,0.0,87,0.00,,---,0.00,VWS V14.01,2013-03-08 07:17:00,
2013-03-08 02:22:00,32.0,28.6,29.91,NNE,19,0.0,0.0,87,0.00,,---,0.00,VWS V14.01,2013-03-08 07:22:00,
2013-03-08 02:27:00,32.0,28.3,29.91,NE,42,0.0,0.0,86,0.00,,---,0.00,VWS V14.01,2013-03-08 07:27:00,
2013-03-08 02:32:00,32.0,28.3,29.91,NE,38,0.0,0.0,86,0.00,,---,0.00,VWS V14.01,2013-03-08 07:32:00,
2013-03-08 02:37:00,32.0,28.3,29.91,NE,35,0.0,0.0,86,0.00,,---,0.00,VWS V14.01,2013-03-08 07:37:00,
2013-03-08 02:42:00,32.0,28.3,29.91,NNE,22,0.0,0.0,86,0.00,,---,0.00,VWS V14.01,2013-03-08 07:42:00,
2013-03-08 02:47:00,32.0,28.3,29.91,NE,49,0.0,0.0,86,0.00,,---,0.00,VWS V14.01,2013-03-08 07:47:00,
2013-03-08 02:52:00,32.0,28.3,29.91,NE,34,0.0,0.0,86,0.00,,---,0.00,VWS V14.01,2013-03-08 07:52:00,
2013-03-08 02:57:00,32.0,28.3,29.91,NNE,29,0.0,0.0,86,0.00,,---,0.00,VWS V14.01,2013-03-08 07:57:00,
2013-03-08 03:02:00,32.0,28.3,29.91,NNE,27,0.0,0.0,86,0.00,,---,0.00,VWS V14.01,2013-03-08 08:02:00,
2013-03-08 03:07:00,32.0,28.3,29.91,NE,55,0.0,0.0,86,0.00,,---,0.00,VWS V14.01,2013-03-08 08:07:00,
2013-03-08 03:12:00,32.2,28.5,29.91,North,5,0.0,0.0,86,0.00,,---,0.00,VWS V14.01,2013-03-08 08:12:00,
2013-03-08 03:17:00,32.2,28.5,29.91,NNE,30,0.0,0.0,86,0.00,,---,0.00,VWS V14.01,2013-03-08 08:17:00,
2013-03-08 03:22:00,32.2,28.8,29.91,North,351,0.0,0.0,87,0.00,,---,0.00,VWS V14.01,2013-03-08 08:22:00,
2013-03-08 03:27:00,32.2,28.5,29.91,NNE,19,0.0,0.0,86,0.00,,---,0.00,VWS V14.01,2013-03-08 08:27:00,
2013-03-08 03:31:00,32.2,28.5,29.91,NE,34,0.0,0.0,86,0.00,,---,0.00,VWS V14.01,2013-03-08 08:31:00,
2013-03-08 03:36:00,32.2,28.8,29.91,NNE,20,0.0,0.0,87,0.00,,---,0.00,VWS V14.01,2013-03-08 08:36:00,
2013-03-08 03:41:00,32.2,28.8,29.91,NE,43,0.0,0.0,87,0.00,,---,0.00,VWS V14.01,2013-03-08 08:41:00,
2013-03-08 03:46:00,32.2,28.8,29.91,NE,47,0.0,0.0,87,0.00,,---,0.00,VWS V14.01,2013-03-08 08:46:00,
2013-03-08 03:51:00,32.2,28.8,29.91,NNE,17,0.0,0.0,87,0.00,,---,0.00,VWS V14.01,2013-03-08 08:51:00,
2013-03-08 03:56:00,32.2,28.8,29.91,NE,37,0.0,0.0,87,0.00,,---,0.00,VWS V14.01,2013-03-08 08:56:00,
2013-03-08 04:02:00,32.2,28.8,29.91,North,9,0.0,0.0,87,0.00,,---,0.00,VWS V14.01,2013-03-08 09:02:00,
2013-03-08 04:07:00,32.2,28.8,29.91,NE,40,0.0,0.0,87,0.00,,---,0.00,VWS V14.01,2013-03-08 09:07:00,
2013-03-08 04:12:00,32.2,28.8,29.91,NE,37,0.0,6.7,87,0.00,,---,0.00,VWS V14.01,2013-03-08 09:12:00,
2013-03-08 04:16:00,32.2,28.8,29.91,North,7,0.0,4.5,87,0.00,,---,0.00,VWS V14.01,2013-03-08 09:16:00,
2013-03-08 04:21:00,32.2,28.8,29.91,NNE,32,0.0,6.3,87,0.00,,---,0.00,VWS V14.01,2013-03-08 09:21:00,
2013-03-08 04:26:00,32.2,28.8,29.91,NE,45,0.0,3.1,87,0.00,,---,0.00,VWS V14.01,2013-03-08 09:26:00,
2013-03-08 04:31:00,32.2,28.8,29.91,ENE,58,0.0,0.0,87,0.00,,---,0.00,VWS V14.01,2013-03-08 09:31:00,
2013-03-08 04:36:00,32.2,28.8,29.91,NE,37,0.0,0.0,87,0.00,,---,0.00,VWS V14.01,2013-03-08 09:36:00,
2013-03-08 04:41:00,32.2,28.8,29.91,North,10,0.0,0.0,87,0.00,,---,0.00,VWS V14.01,2013-03-08 09:41:00,
2013-03-08 04:46:00,32.2,28.8,29.91,NNE,29,0.0,0.0,87,0.00,,---,0.00,VWS V14.01,2013-03-08 09:46:00,
2013-03-08 04:51:00,32.4,28.9,29.91,NE,49,0.0,0.0,87,0.00,,---,0.00,VWS V14.01,2013-03-08 09:51:00,
2013-03-08 04:56:00,32.4,28.9,29.91,NE,50,0.0,0.0,87,0.00,,---,0.00,VWS V14.01,2013-03-08 09:56:00,
2013-03-08 05:01:00,32.4,28.9,29.91,NE,43,0.0,0.0,87,0.00,,---,0.00,VWS V14.01,2013-03-08 10:01:00,
2013-03-08 05:06:00,32.4,28.9,29.91,NNE,30,0.0,0.0,87,0.00,,---,0.00,VWS V14.01,2013-03-08 10:06:00,
2013-03-08 05:11:00,32.4,28.9,29.91,NNE,28,0.0,0.0,87,0.00,,---,0.00,VWS V14.01,2013-03-08 10:11:00,
2013-03-08 05:16:00,32.4,28.9,29.91,NE,34,0.0,0.0,87,0.00,,---,0.00,VWS V14.01,2013-03-08 10:16:00,
2013-03-08 05:21:00,32.4,28.9,29.91,NE,51,0.0,0.0,87,0.00,,---,0.00,VWS V14.01,2013-03-08 10:21:00,
2013-03-08 05:26:00,32.4,28.9,29.91,NE,52,0.0,0.0,87,0.00,,---,0.00,VWS V14.01,2013-03-08 10:26:00,
2013-03-08 05:31:00,32.2,28.8,29.91,NNE,21,0.0,0.0,87,0.00,,---,0.00,VWS V14.01,2013-03-08 10:31:00,
2013-03-08 05:36:00,32.2,28.8,29.91,NE,37,0.0,0.0,87,0.00,,---,0.00,VWS V14.01,2013-03-08 10:36:00,
2013-03-08 05:41:00,32.2,28.5,29.91,NE,34,0.0,0.0,86,0.00,,---,0.00,VWS V14.01,2013-03-08 10:41:00,
2013-03-08 05:46:00,32.2,28.5,29.91,NNE,27,0.0,0.0,86,0.00,,---,0.00,VWS V14.01,2013-03-08 10:46:00,
2013-03-08 05:51:00,32.2,28.5,29.91,NE,47,0.0,0.0,86,0.00,,---,0.00,VWS V14.01,2013-03-08 10:51:00,
2013-03-08 05:56:00,32.2,28.5,29.91,NE,36,0.0,0.0,86,0.00,,---,0.00,VWS V14.01,2013-03-08 10:56:00,
2013-03-08 06:01:00,32.2,28.5,29.91,NE,50,0.0,0.0,86,0.00,,---,0.00,VWS V14.01,2013-03-08 11:01:00,
2013-03-08 06:06:00,32.2,28.5,29.91,NE,51,0.0,0.0,86,0.00,,---,0.00,VWS V14.01,2013-03-08 11:06:00,
2013-03-08 06:11:00,32.2,28.5,29.91,NE,52,0.0,0.0,86,0.00,,---,0.00,VWS V14.01,2013-03-08 11:11:00,
2013-03-08 06:16:00,32.2,28.5,29.91,NE,47,0.0,0.0,86,0.00,,---,0.00,VWS V14.01,2013-03-08 11:16:00,
2013-03-08 06:21:00,32.2,28.5,29.91,NE,37,0.0,0.0,86,0.00,,---,0.00,VWS V14.01,2013-03-08 11:21:00,
2013-03-08 06:26:00,32.2,28.5,29.91,NE,37,0.0,0.0,86,0.00,,---,0.00,VWS V14.01,2013-03-08 11:26:00,
2013-03-08 06:31:00,32.2,28.5,29.94,NE,39,0.0,0.0,86,0.00,,---,0.00,VWS V14.01,2013-03-08 11:31:00,
2013-03-08 06:36:00,32.2,28.5,29.94,NE,34,0.0,0.0,86,0.00,,---,0.00,VWS V14.01,2013-03-08 11:36:00,
2013-03-08 06:41:00,32.2,28.5,29.94,North,2,0.0,0.0,86,0.00,,---,0.00,VWS V14.01,2013-03-08 11:41:00,
2013-03-08 06:46:00,32.2,28.5,29.94,NE,38,0.0,0.0,86,0.00,,---,0.00,VWS V14.01,2013-03-08 11:46:00,
2013-03-08 06:51:00,32.2,28.5,29.94,NE,55,0.0,0.0,86,0.00,,---,0.00,VWS V14.01,2013-03-08 11:51:00,
2013-03-08 06:56:00,32.4,28.6,29.94,NE,49,0.0,0.0,86,0.00,,---,0.00,VWS V14.01,2013-03-08 11:56:00,
2013-03-08 07:01:00,32.4,28.6,29.94,East,88,0.0,0.0,86,0.00,,---,0.00,VWS V14.01,2013-03-08 12:01:00,
2013-03-08 07:06:00,32.4,28.6,29.94,NNE,31,0.0,0.0,86,0.00,,---,0.00,VWS V14.01,2013-03-08 12:06:00,
2013-03-08 07:11:00,32.4,28.6,29.94,NE,48,0.0,0.0,86,0.00,,---,0.00,VWS V14.01,2013-03-08 12:11:00,
2013-03-08 07:16:00,32.4,28.6,29.94,NNE,19,0.0,0.0,86,0.00,,---,0.00,VWS V14.01,2013-03-08 12:16:00,
2013-03-08 07:21:00,32.5,28.8,29.94,ENE,71,0.0,0.0,86,0.00,,---,0.00,VWS V14.01,2013-03-08 12:21:00,
2013-03-08 07:26:00,32.5,28.5,29.94,NNE,32,0.0,0.0,85,0.00,,---,0.00,VWS V14.01,2013-03-08 12:26:00,
2013-03-08 07:31:00,32.5,28.5,29.94,NE,44,0.0,0.0,85,0.00,,---,0.00,VWS V14.01,2013-03-08 12:31:00,
2013-03-08 07:36:00,32.5,28.5,29.94,NE,42,0.0,0.0,85,0.00,,---,0.00,VWS V14.01,2013-03-08 12:36:00,
2013-03-08 07:41:00,32.5,28.5,29.94,NE,56,0.0,0.0,85,0.00,,---,0.00,VWS V14.01,2013-03-08 12:41:00,
2013-03-08 07:46:00,32.5,28.5,29.94,North,356,0.0,0.0,85,0.00,,---,0.00,VWS V14.01,2013-03-08 12:46:00,
2013-03-08 07:51:00,32.5,28.5,29.94,NE,46,0.0,0.0,85,0.00,,---,0.00,VWS V14.01,2013-03-08 12:51:00,
2013-03-08 07:56:00,32.5,28.5,29.94,NE,56,0.0,0.0,85,0.00,,---,0.00,VWS V14.01,2013-03-08 12:56:00,
2013-03-08 08:01:00,32.7,28.7,29.94,NNE,15,0.0,0.0,85,0.00,,---,0.00,VWS V14.01,2013-03-08 13:01:00,
2013-03-08 08:06:00,32.7,28.7,29.94,North,0,0.0,0.0,85,0.00,,---,0.00,VWS V14.01,2013-03-08 13:06:00,
2013-03-08 08:11:00,32.7,28.7,29.94,NE,37,0.0,0.0,85,0.00,,---,0.00,VWS V14.01,2013-03-08 13:11:00,
2013-03-08 08:16:00,32.7,28.7,29.94,NE,47,0.0,4.9,85,0.00,,---,0.00,VWS V14.01,2013-03-08 13:16:00,
2013-03-08 08:21:00,32.7,29.0,29.94,NNE,31,0.0,0.0,86,0.00,,---,0.00,VWS V14.01,2013-03-08 13:21:00,
2013-03-08 08:26:00,32.7,29.0,29.94,NE,34,0.0,7.8,86,0.00,,---,0.00,VWS V14.01,2013-03-08 13:26:00,
2013-03-08 08:31:00,32.7,29.0,29.94,NE,51,10.1,11.2,86,0.00,,---,0.00,VWS V14.01,2013-03-08 13:31:00,
2013-03-08 08:36:00,32.7,29.0,29.94,NE,39,0.0,0.0,86,0.00,,---,0.00,VWS V14.01,2013-03-08 13:36:00,
2013-03-08 08:41:00,32.7,29.0,29.94,NNE,33,0.0,0.0,86,0.00,,---,0.00,VWS V14.01,2013-03-08 13:41:00,
2013-03-08 08:46:00,32.7,29.0,29.94,ENE,57,0.0,0.0,86,0.00,,---,0.00,VWS V14.01,2013-03-08 13:46:00,
2013-03-08 08:51:00,32.7,29.0,29.94,NE,39,0.0,0.0,86,0.00,,---,0.00,VWS V14.01,2013-03-08 13:51:00,
2013-03-08 08:56:00,32.9,29.2,29.94,NE,36,0.0,0.0,86,0.00,,---,0.00,VWS V14.01,2013-03-08 13:56:00,
2013-03-08 09:01:00,32.9,29.2,29.94,NNE,22,0.0,0.0,86,0.00,,---,0.00,VWS V14.01,2013-03-08 14:01:00,
2013-03-08 09:06:00,32.9,29.2,29.94,NE,54,0.0,0.0,86,0.00,,---,0.00,VWS V14.01,2013-03-08 14:06:00,
2013-03-08 09:11:00,32.9,29.2,29.94,ENE,61,0.0,0.0,86,0.00,,---,0.00,VWS V14.01,2013-03-08 14:11:00,
2013-03-08 09:22:00,33.1,29.4,29.94,NNE,25,0.0,0.0,86,0.00,,---,0.00,VWS V14.01,2013-03-08 14:22:00,
2013-03-08 09:27:00,33.1,29.4,29.94,ENE,65,0.0,0.0,86,0.00,,---,0.00,VWS V14.01,2013-03-08 14:27:00,
2013-03-08 09:32:00,33.1,29.4,29.94,NE,43,0.0,0.0,86,0.00,,---,0.00,VWS V14.01,2013-03-08 14:32:00,
2013-03-08 09:37:00,33.1,29.4,29.94,NE,38,0.0,0.0,86,0.00,,---,0.00,VWS V14.01,2013-03-08 14:37:00,
2013-03-08 09:41:00,33.1,29.4,29.94,NNE,27,0.0,0.0,86,0.00,,---,0.00,VWS V14.01,2013-03-08 14:41:00,
2013-03-08 09:46:00,33.1,29.4,29.94,NNE,26,0.0,0.0,86,0.00,,---,0.00,VWS V14.01,2013-03-08 14:46:00,
2013-03-08 09:51:00,33.1,29.4,29.94,NE,45,0.0,0.0,86,0.00,,---,0.00,VWS V14.01,2013-03-08 14:51:00,
2013-03-08 09:56:00,33.1,29.4,29.94,NE,56,0.0,0.0,86,0.00,,---,0.00,VWS V14.01,2013-03-08 14:56:00,
2013-03-08 10:01:00,33.1,29.4,29.94,NNE,14,0.0,0.0,86,0.00,,---,0.00,VWS V14.01,2013-03-08 15:01:00,
2013-03-08 10:06:00,33.3,29.5,29.94,NE,45,0.0,0.0,86,0.00,,---,0.00,VWS V14.01,2013-03-08 15:06:00,
2013-03-08 10:11:00,33.1,29.4,29.94,NNE,24,0.0,0.0,86,0.00,,---,0.00,VWS V14.01,2013-03-08 15:11:00,
2013-03-08 10:16:00,33.1,29.4,29.94,NNW,347,0.0,0.0,86,0.00,,---,0.00,VWS V14.01,2013-03-08 15:16:00,
2013-03-08 10:21:00,33.1,29.4,29.94,NE,34,0.0,0.0,86,0.00,,---,0.00,VWS V14.01,2013-03-08 15:21:00,
2013-03-08 10:26:00,32.9,29.5,29.94,NE,54,0.0,0.0,87,0.00,,---,0.00,VWS V14.01,2013-03-08 15:26:00,
2013-03-08 10:31:00,32.9,29.2,29.94,NE,48,0.0,0.0,86,0.00,,---,0.00,VWS V14.01,2013-03-08 15:31:00,
2013-03-08 10:36:00,32.9,29.2,29.94,NNE,26,0.0,0.0,86,0.00,,---,0.00,VWS V14.01,2013-03-08 15:36:00,
2013-03-08 10:41:00,32.9,29.2,29.94,NE,41,0.0,0.0,86,0.00,,---,0.00,VWS V14.01,2013-03-08 15:41:00,
2013-03-08 10:46:00,32.9,29.2,29.94,ENE,63,0.0,0.0,86,0.00,,---,0.00,VWS V14.01,2013-03-08 15:46:00,
2013-03-08 10:51:00,32.7,29.0,29.94,NNE,23,0.0,0.0,86,0.00,,---,0.00,VWS V14.01,2013-03-08 15:51:00,
2013-03-08 10:56:00,32.9,29.2,29.94,NNE,31,0.0,0.0,86,0.00,,---,0.00,VWS V14.01,2013-03-08 15:56:00,
2013-03-08 11:01:00,32.9,29.2,29.94,NE,38,0.0,0.0,86,0.00,,---,0.00,VWS V14.01,2013-03-08 16:01:00,
2013-03-08 11:06:00,32.9,29.2,29.94,ENE,60,0.0,0.0,86,0.00,,---,0.00,VWS V14.01,2013-03-08 16:06:00,
2013-03-08 11:11:00,32.9,28.9,29.94,ENE,62,0.0,0.0,85,0.00,,---,0.00,VWS V14.01,2013-03-08 16:11:00,
2013-03-08 11:16:00,32.7,29.0,29.94,NNE,20,0.0,0.0,86,0.00,,---,0.00,VWS V14.01,2013-03-08 16:16:00,
2013-03-08 11:21:00,32.7,29.0,29.94,NE,53,0.0,0.0,86,0.00,,---,0.00,VWS V14.01,2013-03-08 16:21:00,
2013-03-08 11:26:00,32.9,29.2,29.94,NE,39,0.0,0.0,86,0.00,,---,0.00,VWS V14.01,2013-03-08 16:26:00,
2013-03-08 11:31:00,32.9,29.2,29.94,North,2,0.0,0.0,86,0.00,,---,0.00,VWS V14.01,2013-03-08 16:31:00,
2013-03-08 11:36:00,32.7,29.0,29.94,NE,36,0.0,0.0,86,0.00,,---,0.00,VWS V14.01,2013-03-08 16:36:00,
2013-03-08 11:41:00,32.9,29.2,29.94,NE,36,0.0,0.0,86,0.00,,---,0.00,VWS V14.01,2013-03-08 16:41:00,
2013-03-08 11:46:00,32.9,28.9,29.94,ENE,61,0.0,0.0,85,0.00,,---,0.00,VWS V14.01,2013-03-08 16:46:00,
2013-03-08 11:51:00,32.9,28.9,29.94,NNE,26,0.0,0.0,85,0.00,,---,0.00,VWS V14.01,2013-03-08 16:51:00,
2013-03-08 11:56:00,32.9,28.9,29.94,NNE,25,0.0,0.0,85,0.00,,---,0.00,VWS V14.01,2013-03-08 16:56:00,
2013-03-08 12:01:00,33.1,29.1,29.94,NNE,17,0.0,0.0,85,0.00,,---,0.00,VWS V14.01,2013-03-08 17:01:00,
2013-03-08 12:06:00,32.9,29.2,29.94,ENE,64,0.0,0.0,86,0.00,,---,0.00,VWS V14.01,2013-03-08 17:06:00,
2013-03-08 12:12:00,32.9,29.2,29.97,NE,34,0.0,0.0,86,0.00,,---,0.00,VWS V14.01,2013-03-08 17:12:00,
2013-03-08 12:16:00,32.7,29.0,29.97,NE,35,0.0,0.0,86,0.00,,---,0.00,VWS V14.01,2013-03-08 17:16:00,
2013-03-08 12:21:00,32.7,29.0,29.97,NNE,30,0.0,0.0,86,0.00,,---,0.00,VWS V14.01,2013-03-08 17:21:00,
2013-03-08 12:26:00,32.7,29.0,29.94,NNE,32,0.0,0.0,86,0.00,,---,0.00,VWS V14.01,2013-03-08 17:26:00,
2013-03-08 12:31:00,32.9,29.2,29.94,NE,36,0.0,0.0,86,0.00,,---,0.00,VWS V14.01,2013-03-08 17:31:00,
2013-03-08 12:36:00,32.9,29.2,29.94,NE,40,0.0,0.0,86,0.00,,---,0.00,VWS V14.01,2013-03-08 17:36:00,
2013-03-08 12:41:00,32.9,29.2,29.94,NNE,26,0.0,0.0,86,0.00,,---,0.00,VWS V14.01,2013-03-08 17:41:00,
2013-03-08 12:46:00,32.9,29.2,29.94,NE,50,0.0,0.0,86,0.00,,---,0.00,VWS V14.01,2013-03-08 17:46:00,
2013-03-08 12:51:00,32.9,28.9,29.94,NNE,26,0.0,0.0,85,0.00,,---,0.00,VWS V14.01,2013-03-08 17:51:00,
2013-03-08 12:56:00,33.1,29.1,29.94,NNE,24,0.0,0.0,85,0.00,,---,0.00,VWS V14.01,2013-03-08 17:56:00,
2013-03-08 13:01:00,33.1,29.1,29.94,NE,36,0.0,0.0,85,0.00,,---,0.00,VWS V14.01,2013-03-08 18:01:00,
2013-03-08 13:06:00,33.1,29.1,29.94,NE,40,0.0,0.0,85,0.00,,---,0.00,VWS V14.01,2013-03-08 18:06:00,
2013-03-08 13:11:00,33.3,29.2,29.94,NNE,31,0.0,0.0,85,0.00,,---,0.00,VWS V14.01,2013-03-08 18:11:00,
2013-03-08 13:16:00,33.3,29.2,29.94,NE,46,0.0,0.0,85,0.00,,---,0.00,VWS V14.01,2013-03-08 18:16:00,
2013-03-08 13:21:00,33.3,29.2,29.94,NE,51,0.0,0.0,85,0.00,,---,0.00,VWS V14.01,2013-03-08 18:21:00,
2013-03-08 13:26:00,33.4,29.4,29.94,North,356,0.0,0.0,85,0.00,,---,0.00,VWS V14.01,2013-03-08 18:26:00,
2013-03-08 13:31:00,33.4,29.4,29.94,NNE,31,0.0,0.0,85,0.00,,---,0.00,VWS V14.01,2013-03-08 18:31:00,
2013-03-08 13:36:00,33.6,29.6,29.94,North,2,0.0,0.0,85,0.00,,---,0.00,VWS V14.01,2013-03-08 18:36:00,
2013-03-08 13:41:00,33.6,29.6,29.97,NNE,27,0.0,0.0,85,0.00,,---,0.00,VWS V14.01,2013-03-08 18:41:00,
2013-03-08 13:46:00,33.6,29.6,29.97,ENE,68,0.0,0.0,85,0.00,,---,0.00,VWS V14.01,2013-03-08 18:46:00,
2013-03-08 13:51:00,33.8,29.8,29.97,ENE,62,0.0,0.0,85,0.00,,---,0.00,VWS V14.01,2013-03-08 18:51:00,
2013-03-08 13:56:00,33.8,29.8,29.97,NE,41,0.0,0.0,85,0.00,,---,0.00,VWS V14.01,2013-03-08 18:56:00,
2013-03-08 14:01:00,33.8,29.8,29.97,NNE,17,0.0,0.0,85,0.00,,---,0.00,VWS V14.01,2013-03-08 19:01:00,
2013-03-08 14:06:00,33.8,29.8,29.97,ENE,74,0.0,0.0,85,0.00,,---,0.00,VWS V14.01,2013-03-08 19:06:00,
2013-03-08 14:11:00,33.8,29.8,29.97,NE,42,0.0,0.0,85,0.00,,---,0.00,VWS V14.01,2013-03-08 19:11:00,
2013-03-08 14:16:00,33.8,29.8,29.97,NNE,26,11.2,11.2,85,0.00,,---,0.00,VWS V14.01,2013-03-08 19:16:00,
2013-03-08 14:21:00,33.8,29.8,29.97,NE,34,5.4,10.1,85,0.00,,---,0.00,VWS V14.01,2013-03-08 19:21:00,
2013-03-08 14:26:00,33.8,29.8,29.97,NE,39,5.4,5.4,85,0.00,,---,0.00,VWS V14.01,2013-03-08 19:26:00,
2013-03-08 14:31:00,33.8,29.8,29.97,ENE,68,6.7,9.2,85,0.00,,---,0.00,VWS V14.01,2013-03-08 19:31:00,
2013-03-08 14:36:00,34.0,30.0,29.97,NE,50,3.6,11.2,85,0.00,,---,0.00,VWS V14.01,2013-03-08 19:36:00,
2013-03-08 14:41:00,34.0,30.0,29.97,ENE,57,0.0,11.0,85,0.00,,---,0.00,VWS V14.01,2013-03-08 19:41:00,
2013-03-08 14:46:00,34.0,30.2,29.97,NNE,26,4.5,8.7,86,0.00,,---,0.00,VWS V14.01,2013-03-08 19:46:00,
2013-03-08 14:51:00,34.0,30.2,29.97,NE,49,6.9,13.4,86,0.00,,---,0.00,VWS V14.01,2013-03-08 19:51:00,
2013-03-08 14:56:00,34.0,30.2,29.97,NE,50,6.9,10.1,86,0.00,,---,0.00,VWS V14.01,2013-03-08 19:56:00,
2013-03-08 15:01:00,34.0,30.2,29.97,North,351,0.0,2.7,86,0.00,,---,0.00,VWS V14.01,2013-03-08 20:01:00,
2013-03-08 15:06:00,34.2,30.4,29.97,NE,55,0.0,11.2,86,0.00,,---,0.00,VWS V14.01,2013-03-08 20:06:00,
2013-03-08 15:11:00,34.0,30.2,29.97,NE,44,4.0,6.9,86,0.00,,---,0.00,VWS V14.01,2013-03-08 20:11:00,
2013-03-08 15:16:00,34.0,30.2,29.97,NE,52,0.0,7.4,86,0.00,,---,0.00,VWS V14.01,2013-03-08 20:16:00,
2013-03-08 15:21:00,34.0,30.2,29.97,NNE,30,6.3,10.1,86,0.00,,---,0.00,VWS V14.01,2013-03-08 20:21:00,
2013-03-08 15:26:00,34.2,30.4,29.97,ENE,58,0.0,4.9,86,0.00,,---,0.00,VWS V14.01,2013-03-08 20:26:00,
2013-03-08 15:31:00,34.2,30.7,29.97,NNE,25,0.0,0.0,87,0.00,,---,0.00,VWS V14.01,2013-03-08 20:31:00,
2013-03-08 15:36:00,34.3,30.9,29.97,North,9,2.7,9.2,87,0.00,,---,0.00,VWS V14.01,2013-03-08 20:36:00,
2013-03-08 15:41:00,34.3,30.9,30.00,North,4,0.0,2.7,87,0.00,,---,0.00,VWS V14.01,2013-03-08 20:41:00,
2013-03-08 15:46:00,34.5,31.1,30.00,ENE,78,5.4,11.2,87,0.00,,---,0.00,VWS V14.01,2013-03-08 20:46:00,
2013-03-08 15:51:00,34.5,31.1,30.00,NE,56,0.0,0.0,87,0.00,,---,0.00,VWS V14.01,2013-03-08 20:51:00,
2013-03-08 15:56:00,34.5,31.1,30.00,NE,39,0.0,0.0,87,0.00,,---,0.00,VWS V14.01,2013-03-08 20:56:00,
2013-03-08 16:01:00,34.5,31.1,30.00,NNE,20,0.0,11.2,87,0.00,,---,0.00,VWS V14.01,2013-03-08 21:01:00,
2013-03-08 16:06:00,34.7,31.0,30.00,NNE,30,0.0,0.0,86,0.00,,---,0.00,VWS V14.01,2013-03-08 21:06:00,
2013-03-08 16:11:00,34.7,31.0,30.00,NNE,29,13.4,13.4,86,0.00,,---,0.00,VWS V14.01,2013-03-08 21:11:00,
2013-03-08 16:16:00,34.7,30.7,30.00,NE,47,8.3,8.3,85,0.00,,---,0.00,VWS V14.01,2013-03-08 21:16:00,
2013-03-08 16:21:00,34.7,30.1,30.00,ENE,59,0.0,10.1,83,0.00,,---,0.00,VWS V14.01,2013-03-08 21:21:00,
2013-03-08 16:26:00,34.5,29.6,30.00,ENE,62,0.0,0.0,82,0.00,,---,0.00,VWS V14.01,2013-03-08 21:26:00,
2013-03-08 16:31:00,34.5,29.6,30.00,NE,39,4.9,4.9,82,0.00,,---,0.00,VWS V14.01,2013-03-08 21:31:00,
2013-03-08 16:36:00,34.7,29.2,30.00,NNE,28,0.0,10.5,80,0.00,,---,0.00,VWS V14.01,2013-03-08 21:36:00,
2013-03-08 16:41:00,34.9,28.4,30.00,NE,46,8.7,12.1,77,0.00,,---,0.00,VWS V14.01,2013-03-08 21:41:00,
2013-03-08 16:46:00,35.1,28.0,30.03,NE,53,5.8,6.9,75,0.00,,---,0.00,VWS V14.01,2013-03-08 21:46:00,
2013-03-08 16:51:00,35.1,27.0,30.03,ENE,63,8.7,8.7,72,0.00,,---,0.00,VWS V14.01,2013-03-08 21:51:00,
2013-03-08 16:56:00,34.9,26.8,30.00,NE,35,0.0,0.0,72,0.00,,---,0.00,VWS V14.01,2013-03-08 21:56:00,
2013-03-08 17:01:00,34.9,25.4,30.00,NE,48,0.0,0.0,68,0.00,,---,0.00,VWS V14.01,2013-03-08 22:01:00,
2013-03-08 17:06:00,35.1,23.8,30.00,NNE,18,8.3,8.3,63,0.00,,---,0.00,VWS V14.01,2013-03-08 22:06:00,
2013-03-08 17:11:00,35.1,23.4,30.03,NNE,23,0.0,0.0,62,0.00,,---,0.00,VWS V14.01,2013-03-08 22:11:00,
2013-03-08 17:16:00,35.1,23.0,30.03,East,80,0.0,4.0,61,0.00,,---,0.00,VWS V14.01,2013-03-08 22:16:00,
2013-03-08 17:21:00,35.1,22.6,30.03,ENE,58,6.7,6.7,60,0.00,,---,0.00,VWS V14.01,2013-03-08 22:21:00,
2013-03-08 17:26:00,35.1,22.2,30.03,NE,54,0.0,0.0,59,0.00,,---,0.00,VWS V14.01,2013-03-08 22:26:00,
2013-03-08 17:31:00,35.4,21.3,30.03,ENE,76,3.6,5.4,56,0.00,,---,0.00,VWS V14.01,2013-03-08 22:31:00,
2013-03-08 17:36:00,35.4,21.3,30.03,ENE,60,0.0,0.0,56,0.00,,---,0.00,VWS V14.01,2013-03-08 22:36:00,
2013-03-08 17:41:00,35.4,21.3,30.03,NNE,31,0.0,8.3,56,0.00,,---,0.00,VWS V14.01,2013-03-08 22:41:00,
2013-03-08 17:46:00,35.4,21.3,30.03,ENE,62,0.0,8.7,56,0.00,,---,0.00,VWS V14.01,2013-03-08 22:46:00,
2013-03-08 17:51:00,35.4,21.3,30.03,NE,56,0.0,0.0,56,0.00,,---,0.00,VWS V14.01,2013-03-08 22:51:00,
2013-03-08 17:56:00,35.4,20.4,30.03,ENE,59,6.9,9.6,54,0.00,,---,0.00,VWS V14.01,2013-03-08 22:56:00,
2013-03-08 18:01:00,35.6,20.2,30.03,NE,34,0.0,0.0,53,0.00,,---,0.00,VWS V14.01,2013-03-08 23:01:00,
2013-03-08 18:06:00,36.1,18.4,30.03,NNE,22,7.4,11.2,48,0.00,,---,0.00,VWS V14.01,2013-03-08 23:06:00,
2013-03-08 18:11:00,36.1,17.4,30.06,NE,50,8.3,8.3,46,0.00,,---,0.00,VWS V14.01,2013-03-08 23:11:00,
2013-03-08 18:16:00,36.1,16.9,30.06,East,97,6.7,9.6,45,0.00,,---,0.00,VWS V14.01,2013-03-08 23:16:00,
2013-03-08 18:21:00,36.5,15.6,30.06,NNE,23,8.3,9.6,42,0.00,,---,0.00,VWS V14.01,2013-03-08 23:21:00,
2013-03-08 18:26:00,36.7,15.2,30.06,NE,36,5.4,5.4,41,0.00,,---,0.00,VWS V14.01,2013-03-08 23:26:00,
2013-03-08 18:31:00,36.9,14.8,30.06,NNE,16,4.5,4.5,40,0.00,,---,0.00,VWS V14.01,2013-03-08 23:31:00,
2013-03-08 18:36:00,37.0,15.0,30.06,ENE,67,0.0,4.9,40,0.00,,---,0.00,VWS V14.01,2013-03-08 23:36:00,
2013-03-08 18:41:00,37.4,14.7,30.06,NE,52,0.0,0.0,39,0.00,,---,0.00,VWS V14.01,2013-03-08 23:41:00,
2013-03-08 18:46:00,37.6,14.3,30.06,ENE,62,0.0,4.9,38,0.00,,---,0.00,VWS V14.01,2013-03-08 23:46:00,
2013-03-08 18:51:00,37.4,14.1,30.06,ENE,75,3.6,3.6,38,0.00,,---,0.00,VWS V14.01,2013-03-08 23:51:00,
2013-03-08 18:56:00,37.4,14.7,30.06,NE,48,0.0,0.0,39,0.00,,---,0.00,VWS V14.01,2013-03-08 23:56:00,
2013-03-08 19:01:00,37.6,13.7,30.06,NE,36,0.0,4.0,37,0.00,,---,0.00,VWS V14.01,2013-03-09 00:01:00,
2013-03-08 19:06:00,37.8,12.6,30.06,ENE,59,4.9,7.4,35,0.00,,---,0.00,VWS V14.01,2013-03-09 00:06:00,
2013-03-08 19:11:00,37.9,11.4,30.06,NE,52,0.0,0.0,33,0.00,,---,0.00,VWS V14.01,2013-03-09 00:11:00,
2013-03-08 19:16:00,37.9,11.4,30.06,NE,39,4.5,7.8,33,0.00,,---,0.00,VWS V14.01,2013-03-09 00:16:00,
2013-03-08 19:21:00,37.9,11.4,30.06,NE,36,0.0,0.0,33,0.00,,---,0.00,VWS V14.01,2013-03-09 00:21:00,
2013-03-08 19:26:00,37.6,11.1,30.06,ENE,60,0.0,0.0,33,0.00,,---,0.00,VWS V14.01,2013-03-09 00:26:00,
2013-03-08 19:31:00,37.8,11.3,30.09,NNE,28,0.0,4.9,33,0.00,,---,0.00,VWS V14.01,2013-03-09 00:31:00,
2013-03-08 19:36:00,37.8,11.3,30.09,NNE,17,0.0,0.0,33,0.00,,---,0.00,VWS V14.01,2013-03-09 00:36:00,
2013-03-08 19:41:00,37.8,10.6,30.09,North,4,0.0,0.0,32,0.00,,---,0.00,VWS V14.01,2013-03-09 00:41:00,
2013-03-08 19:46:00,37.8,11.3,30.09,North,10,0.0,0.0,33,0.00,,---,0.00,VWS V14.01,2013-03-09 00:46:00,
2013-03-08 19:51:00,37.2,12.1,30.09,NNW,336,0.0,0.0,35,0.00,,---,0.00,VWS V14.01,2013-03-09 00:51:00,
2013-03-08 19:56:00,36.9,13.0,30.09,NE,52,0.0,0.0,37,0.00,,---,0.00,VWS V14.01,2013-03-09 00:56:00,
2013-03-08 20:01:00,36.9,14.2,30.09,NNE,22,0.0,0.0,39,0.00,,---,0.00,VWS V14.01,2013-03-09 01:01:00,
2013-03-08 20:06:00,36.9,14.2,30.09,NNE,22,0.0,0.0,39,0.00,,---,0.00,VWS V14.01,2013-03-09 01:06:00,
2013-03-08 20:11:00,36.9,13.6,30.09,NNE,25,0.0,0.0,38,0.00,,---,0.00,VWS V14.01,2013-03-09 01:11:00,
2013-03-08 20:16:00,37.0,13.2,30.09,North,4,0.0,0.0,37,0.00,,---,0.00,VWS V14.01,2013-03-09 01:16:00,
2013-03-08 20:21:00,37.2,12.7,30.09,NE,39,0.0,0.0,36,0.00,,---,0.00,VWS V14.01,2013-03-09 01:21:00,
2013-03-08 20:26:00,37.4,12.3,30.09,NNE,24,0.0,0.0,35,0.00,,---,0.00,VWS V14.01,2013-03-09 01:26:00,
2013-03-08 20:31:00,37.6,11.1,30.09,NE,35,0.0,3.1,33,0.00,,---,0.00,VWS V14.01,2013-03-09 01:31:00,
2013-03-08 20:36:00,37.8,10.6,30.09,NNE,15,0.0,0.0,32,0.00,,---,0.00,VWS V14.01,2013-03-09 01:36:00,
2013-03-08 20:41:00,37.9,10.7,30.09,NE,46,0.0,0.0,32,0.00,,---,0.00,VWS V14.01,2013-03-09 01:41:00,
2013-03-08 20:46:00,37.9,10.0,30.09,NE,55,0.0,2.7,31,0.00,,---,0.00,VWS V14.01,2013-03-09 01:46:00,
2013-03-08 20:51:00,38.1,9.4,30.09,NE,40,0.0,0.0,30,0.00,,---,0.00,VWS V14.01,2013-03-09 01:51:00,
2013-03-08 20:56:00,38.1,9.4,30.09,NNE,16,0.0,0.0,30,0.00,,---,0.00,VWS V14.01,2013-03-09 01:56:00,
2013-03-08 21:01:00,38.7,9.2,30.09,NNE,26,5.4,9.2,29,0.00,,---,0.00,VWS V14.01,2013-03-09 02:01:00,
2013-03-08 21:06:00,38.8,8.5,30.09,NNE,12,0.0,0.0,28,0.00,,---,0.00,VWS V14.01,2013-03-09 02:06:00,
2013-03-08 21:11:00,38.7,8.4,30.09,North,8,0.0,0.0,28,0.00,,---,0.00,VWS V14.01,2013-03-09 02:11:00,
2013-03-08 21:16:00,38.8,6.9,30.09,NNE,23,0.0,5.4,26,0.00,,---,0.00,VWS V14.01,2013-03-09 02:16:00,
2013-03-08 21:21:00,38.7,6.7,30.09,NE,45,0.0,0.0,26,0.00,,---,0.00,VWS V14.01,2013-03-09 02:21:00,
2013-03-08 21:26:00,38.8,6.9,30.09,NNE,30,0.0,5.4,26,0.00,,---,0.00,VWS V14.01,2013-03-09 02:26:00,
2013-03-08 21:31:00,38.5,6.6,30.09,NE,56,0.0,3.1,26,0.00,,---,0.00,VWS V14.01,2013-03-09 02:31:00,
2013-03-08 21:36:00,38.7,4.1,30.09,North,5,0.0,0.0,23,0.00,,---,0.00,VWS V14.01,2013-03-09 02:36:00,
2013-03-08 21:41:00,39.0,4.4,30.09,ENE,60,0.0,10.5,23,0.00,,---,0.00,VWS V14.01,2013-03-09 02:41:00,
2013-03-08 21:46:00,38.7,4.1,30.09,NNE,21,0.0,7.8,23,0.00,,---,0.00,VWS V14.01,2013-03-09 02:46:00,
2013-03-08 21:51:00,38.3,6.4,30.09,NE,43,4.5,4.5,26,0.04,,---,0.04,VWS V14.01,2013-03-09 02:51:00,
2013-03-08 21:56:00,38.5,3.9,30.09,NE,42,0.0,0.0,23,0.04,,---,0.04,VWS V14.01,2013-03-09 02:56:00,
2013-03-08 22:01:00,38.5,3.9,30.09,NNE,22,0.0,5.4,23,0.04,,---,0.04,VWS V14.01,2013-03-09 03:01:00,
2013-03-08 22:06:00,38.5,3.9,30.09,NE,50,0.0,6.3,23,0.04,,---,0.04,VWS V14.01,2013-03-09 03:06:00,
2013-03-08 22:11:00,38.3,3.8,30.09,North,11,4.5,4.5,23,0.04,,---,0.04,VWS V14.01,2013-03-09 03:11:00,
2013-03-08 22:16:00,38.5,3.9,30.09,NE,38,0.0,6.7,23,0.04,,---,0.04,VWS V14.01,2013-03-09 03:16:00,
2013-03-08 22:21:00,38.1,4.5,30.09,North,1,0.0,7.4,24,0.04,,---,0.04,VWS V14.01,2013-03-09 03:21:00,
2013-03-08 22:26:00,38.1,4.5,30.09,NNE,16,0.0,0.0,24,0.04,,---,0.04,VWS V14.01,2013-03-09 03:26:00,
2013-03-08 22:31:00,38.1,4.5,30.09,NNE,19,0.0,2.7,24,0.04,,---,0.04,VWS V14.01,2013-03-09 03:31:00,
2013-03-08 22:36:00,37.9,4.4,30.09,North,351,0.0,0.0,24,0.04,,---,0.04,VWS V14.01,2013-03-09 03:36:00,
2013-03-08 22:41:00,37.8,4.2,30.09,NE,43,0.0,0.0,24,0.04,,---,0.04,VWS V14.01,2013-03-09 03:41:00,
2013-03-08 22:46:00,37.9,4.4,30.12,NNE,27,0.0,0.0,24,0.04,,---,0.04,VWS V14.01,2013-03-09 03:46:00,
2013-03-08 22:51:00,37.6,4.1,30.12,NNE,20,0.0,5.4,24,0.00,,---,0.04,VWS V14.01,2013-03-09 03:51:00,
2013-03-08 22:56:00,37.6,4.1,30.12,NNE,28,0.0,0.0,24,0.00,,---,0.04,VWS V14.01,2013-03-09 03:56:00,
2013-03-08 23:01:00,37.6,4.1,30.12,NNE,22,7.4,7.4,24,0.00,,---,0.04,VWS V14.01,2013-03-09 04:01:00,
2013-03-08 23:06:00,37.4,3.9,30.12,NE,43,3.6,3.6,24,0.00,,---,0.04,VWS V14.01,2013-03-09 04:06:00,
2013-03-08 23:11:00,37.8,1.4,30.12,NE,50,8.7,12.5,21,0.00,,---,0.04,VWS V14.01,2013-03-09 04:11:00,
2013-03-08 23:16:00,37.9,1.5,30.12,North,11,0.0,4.5,21,0.00,,---,0.04,VWS V14.01,2013-03-09 04:16:00,
2013-03-08 23:21:00,37.6,1.2,30.12,ENE,68,0.0,2.7,21,0.00,,---,0.04,VWS V14.01,2013-03-09 04:21:00,
2013-03-08 23:26:00,37.6,1.2,30.12,NNE,17,0.0,6.9,21,0.00,,---,0.04,VWS V14.01,2013-03-09 04:26:00,
2013-03-08 23:31:00,37.6,1.2,30.12,NE,50,6.9,9.6,21,0.00,,---,0.04,VWS V14.01,2013-03-09 04:31:00,
2013-03-08 23:36:00,37.6,1.2,30.12,NE,48,7.4,7.4,21,0.00,,---,0.04,VWS V14.01,2013-03-09 04:36:00,
2013-03-08 23:41:00,37.4,1.0,30.12,NNE,17,0.0,0.0,21,0.00,,---,0.04,VWS V14.01,2013-03-09 04:41:00,
2013-03-08 23:46:00,37.9,1.5,30.12,NE,53,0.0,0.0,21,0.00,,---,0.04,VWS V14.01,2013-03-09 04:46:00,
2013-03-08 23:51:00,37.8,1.4,30.12,NNE,30,0.0,4.9,21,0.00,,---,0.04,VWS V14.01,2013-03-09 04:51:00,
2013-03-08 23:56:00,37.6,1.2,30.12,NE,46,4.5,4.5,21,0.00,,---,0.04,VWS V14.01,2013-03-09 04:56:00,